Time;durP1;ratioP1;P1;durP2;ratioP2;P2;SDS_P1;SDS_P2;PMS_P1;PMS_P2;Temp;Humidity;BMP_temperature;BMP_pressure;BME280_temperature;BME280_humidity;BME280_pressure;Samples;Min_cycle;Max_cycle;Signal;HPM_P1;HPM_P2
2021/01/31 00:01:33;;;;;;;6.65;4.32;;;6.70;71.30;;;;;;5084820;28;20029;-7
2021/01/31 00:03:58;;;;;;;5.78;4.20;;;6.70;71.60;;;;;;5084625;28;20108;-7
2021/01/31 00:06:24;;;;;;;5.80;4.20;;;6.70;71.90;;;;;;5084164;28;20025;-8
2021/01/31 00:08:49;;;;;;;16.77;7.25;;;6.90;71.50;;;;;;5085888;28;20320;-8
2021/01/31 00:11:17;;;;;;;5.75;3.95;;;6.90;71.10;;;;;;5084736;28;20216;-7
2021/01/31 00:13:42;;;;;;;4.45;3.38;;;6.70;71.50;;;;;;5083364;28;20067;-7
2021/01/31 00:16:08;;;;;;;5.05;3.17;;;6.60;71.60;;;;;;5066684;28;20041;-7
2021/01/31 00:18:34;;;;;;;3.95;3.30;;;6.60;71.10;;;;;;5084473;28;20111;-8
2021/01/31 00:21:01;;;;;;;3.92;3.28;;;6.50;71.30;;;;;;5084044;28;20032;-8
2021/01/31 00:23:26;;;;;;;4.75;2.88;;;6.50;71.40;;;;;;5085603;28;20028;-7
2021/01/31 00:25:52;;;;;;;3.28;2.72;;;6.40;71.80;;;;;;5084251;28;20037;-7
2021/01/31 00:28:19;;;;;;;3.58;2.70;;;6.50;71.50;;;;;;5083951;28;20040;-7
2021/01/31 00:30:45;;;;;;;3.88;2.72;;;6.50;71.00;;;;;;5084114;28;20051;-7
2021/01/31 00:33:17;;;;;;;3.55;2.28;;;6.60;71.00;;;;;;5084559;28;20032;-7
2021/01/31 00:35:43;;;;;;;3.03;2.40;;;6.50;71.00;;;;;;5084577;28;20023;-8
2021/01/31 00:38:10;;;;;;;3.25;2.25;;;6.30;71.20;;;;;;5083562;28;20111;-7
2021/01/31 00:40:35;;;;;;;2.78;2.13;;;6.30;71.60;;;;;;5083032;28;20040;-7
2021/01/31 00:43:01;;;;;;;2.88;2.40;;;6.30;71.80;;;;;;5083843;28;20036;-7
2021/01/31 00:45:27;;;;;;;3.42;2.42;;;6.40;70.90;;;;;;5083731;28;20032;-7
2021/01/31 00:47:53;;;;;;;2.70;2.20;;;6.30;71.30;;;;;;5085390;28;20074;-7
2021/01/31 00:50:21;;;;;;;2.38;1.80;;;6.40;71.00;;;;;;5083888;28;20049;-8
2021/01/31 00:52:46;;;;;;;2.72;2.10;;;6.30;71.00;;;;;;5083828;28;20036;-8
2021/01/31 00:55:12;;;;;;;2.45;2.03;;;6.40;71.00;;;;;;5082633;28;20197;-8
2021/01/31 00:57:38;;;;;;;2.17;1.90;;;6.50;70.40;;;;;;5083284;28;20036;-8
2021/01/31 01:00:15;;;;;;;2.22;1.80;;;6.40;70.20;;;;;;5083447;28;20047;-8
2021/01/31 01:02:41;;;;;;;3.17;2.13;;;6.40;70.20;;;;;;5085106;28;20032;-7
2021/01/31 01:05:07;;;;;;;2.80;2.17;;;6.40;69.90;;;;;;5083684;28;20039;-8
2021/01/31 01:07:32;;;;;;;3.03;2.38;;;6.30;70.60;;;;;;5083083;28;20270;-6
2021/01/31 01:09:58;;;;;;;2.55;1.92;;;6.30;70.50;;;;;;5083190;28;20032;-7
2021/01/31 01:12:23;;;;;;;2.50;2.00;;;6.40;70.30;;;;;;5083119;28;20032;-7
2021/01/31 01:14:49;;;;;;;3.05;2.15;;;6.30;70.80;;;;;;5084712;28;20024;-8
2021/01/31 01:17:14;;;;;;;2.88;2.20;;;6.40;70.40;;;;;;5083371;28;20040;-8
2021/01/31 01:19:40;;;;;;;2.80;2.30;;;6.40;70.50;;;;;;5083197;28;20060;-7
2021/01/31 01:22:05;;;;;;;2.65;2.20;;;6.40;70.10;;;;;;5082848;28;20044;-7
2021/01/31 01:24:31;;;;;;;2.72;2.10;;;6.50;70.00;;;;;;5083280;28;20035;-7
2021/01/31 01:26:57;;;;;;;2.83;2.28;;;6.30;69.80;;;;;;5084461;28;20029;-8
2021/01/31 01:29:23;;;;;;;3.60;2.20;;;6.40;70.10;;;;;;5082802;28;20032;-7
2021/01/31 01:31:48;;;;;;;3.88;2.15;;;6.40;69.80;;;;;;5082787;28;20231;-7
2021/01/31 01:34:14;;;;;;;3.45;2.63;;;6.40;69.50;;;;;;5082877;28;20040;-8
2021/01/31 01:36:39;;;;;;;3.83;2.65;;;6.10;70.30;;;;;;5082593;28;20044;-8
2021/01/31 01:39:05;;;;;;;3.53;2.92;;;5.80;71.70;;;;;;5082464;28;20032;-6
2021/01/31 01:41:42;;;;;;;3.40;2.80;;;5.40;72.30;;;;;;5084345;28;20028;-7
2021/01/31 01:44:08;;;;;;;4.18;2.85;;;5.60;72.30;;;;;;5083294;28;20103;-7
2021/01/31 01:46:36;;;;;;;3.90;3.00;;;5.80;71.80;;;;;;5082738;28;20040;-7
2021/01/31 01:49:05;;;;;;;4.50;3.30;;;5.70;71.70;;;;;;5081534;28;20223;-7
2021/01/31 01:51:36;;;;;;;4.55;3.63;;;5.70;71.20;;;;;;5081405;28;20029;-7
2021/01/31 01:54:02;;;;;;;5.00;3.65;;;5.60;72.10;;;;;;5082764;28;20028;-8
2021/01/31 01:56:42;;;;;;;4.97;4.22;;;5.80;71.30;;;;;;5066935;28;20029;-7
2021/01/31 01:59:09;;;;;;;5.57;4.80;;;5.70;70.40;;;;;;5082987;28;20032;-7
2021/01/31 02:01:34;;;;;;;5.25;4.55;;;5.10;72.10;;;;;;5082798;28;20070;-6
2021/01/31 02:04:00;;;;;;;6.28;4.57;;;5.30;72.30;;;;;;5081428;28;20032;-7
2021/01/31 02:06:27;;;;;;;5.38;4.78;;;5.40;71.80;;;;;;5083489;28;20036;-6
2021/01/31 02:08:57;;;;;;;6.90;5.28;;;5.60;71.40;;;;;;5088254;28;20095;-6
2021/01/31 02:11:23;;;;;;;5.70;4.90;;;5.50;71.10;;;;;;5086837;28;20040;-7
2021/01/31 02:13:59;;;;;;;6.57;5.75;;;5.60;71.00;;;;;;5086855;28;20123;-6
2021/01/31 02:16:44;;;;;;;7.43;5.72;;;5.80;70.60;;;;;;5085958;28;20099;-7
2021/01/31 02:19:36;;;;;;;7.15;6.07;;;5.90;70.00;;;;;;5085837;28;20045;-8
2021/01/31 02:22:27;;;;;;;7.50;5.82;;;5.80;70.20;;;;;;5086819;28;20216;-7
2021/01/31 02:25:11;;;;;;;8.20;6.28;;;5.90;69.60;;;;;;5085501;28;20032;-8
2021/01/31 02:28:08;;;;;;;7.35;6.30;;;5.80;69.90;;;;;;5086464;28;20029;-8
2021/01/31 02:30:48;;;;;;;7.20;6.00;;;5.70;70.20;;;;;;5086024;28;20050;-6
2021/01/31 02:33:31;;;;;;;8.25;6.32;;;5.70;69.70;;;;;;5085356;28;20070;-8
2021/01/31 02:36:08;;;;;;;9.90;6.72;;;5.60;70.20;;;;;;5086701;28;20078;-7
2021/01/31 02:38:48;;;;;;;7.32;6.50;;;5.80;69.60;;;;;;5068830;28;20055;-7
2021/01/31 02:41:43;;;;;;;7.90;6.28;;;5.60;69.90;;;;;;5086252;28;20235;-6
2021/01/31 02:44:10;;;;;;;6.97;5.95;;;5.60;70.00;;;;;;5077055;28;20037;-7
2021/01/31 02:46:47;;;;;;;7.95;6.18;;;5.40;70.50;;;;;;5084713;28;20412;-6
2021/01/31 02:49:25;;;;;;;8.05;6.85;;;5.40;70.10;;;;;;5084730;28;20047;-7
2021/01/31 02:52:10;;;;;;;7.40;6.20;;;5.30;70.60;;;;;;5085550;28;20107;-6
2021/01/31 02:55:00;;;;;;;7.63;6.25;;;5.20;71.00;;;;;;5084643;28;20319;-7
2021/01/31 02:57:41;;;;;;;7.80;6.07;;;5.20;71.20;;;;;;5062861;28;20350;-7
2021/01/31 03:00:10;;;;;;;10.07;6.60;;;4.90;72.00;;;;;;5068050;28;20035;-7
2021/01/31 03:02:38;;;;;;;7.93;6.53;;;4.90;71.70;;;;;;5087477;28;20265;-6
2021/01/31 03:05:12;;;;;;;7.65;6.50;;;4.70;72.50;;;;;;5068383;28;20052;-8
2021/01/31 03:08:03;;;;;;;8.07;6.68;;;4.50;72.90;;;;;;5084421;28;20037;-6
2021/01/31 03:10:41;;;;;;;7.70;6.32;;;4.60;73.10;;;;;;5084260;28;20036;-8
2021/01/31 03:13:18;;;;;;;8.63;6.60;;;4.50;73.30;;;;;;5084214;28;20271;-7
2021/01/31 03:15:47;;;;;;;8.68;6.88;;;4.40;73.70;;;;;;5085154;28;20096;-7
2021/01/31 03:18:20;;;;;;;8.13;6.40;;;4.90;72.60;;;;;;5066793;28;20091;-7
2021/01/31 03:21:16;;;;;;;7.78;6.38;;;4.70;71.90;;;;;;5086289;28;20029;-7
2021/01/31 03:23:48;;;;;;;8.15;6.40;;;4.90;72.80;;;;;;5086627;28;20036;-7
2021/01/31 03:26:39;;;;;;;8.75;6.90;;;5.00;72.00;;;;;;5084410;28;20353;-8
2021/01/31 03:29:04;;;;;;;9.02;6.45;;;4.70;72.40;;;;;;5071440;28;20260;-6
2021/01/31 03:31:31;;;;;;;8.10;6.30;;;4.70;72.90;;;;;;5085275;28;20032;-8
2021/01/31 03:34:05;;;;;;;9.48;7.22;;;4.70;72.60;;;;;;5067639;28;20032;-7
2021/01/31 03:36:31;;;;;;;8.68;6.78;;;4.70;73.20;;;;;;5083885;28;20074;-6
2021/01/31 03:38:57;;;;;;;7.35;6.38;;;5.00;72.10;;;;;;5069223;28;20036;-7
2021/01/31 03:41:25;;;;;;;8.93;6.97;;;4.90;72.00;;;;;;5067588;28;20036;-6
2021/01/31 03:43:51;;;;;;;8.77;6.57;;;4.80;71.90;;;;;;5067548;28;20041;-6
2021/01/31 03:46:29;;;;;;;8.65;6.78;;;4.80;72.60;;;;;;5084917;28;20227;-7
2021/01/31 03:48:59;;;;;;;8.40;6.85;;;4.80;72.20;;;;;;5067257;28;20028;-6
2021/01/31 03:51:25;;;;;;;9.18;6.97;;;4.90;72.10;;;;;;5083577;28;20204;-6
2021/01/31 03:53:51;;;;;;;9.80;7.60;;;4.90;71.50;;;;;;5085662;28;20143;-7
2021/01/31 03:56:20;;;;;;;9.25;6.68;;;5.00;71.60;;;;;;5084858;28;20032;-7
2021/01/31 03:58:46;;;;;;;9.73;7.38;;;5.00;71.10;;;;;;5083684;28;20037;-7
2021/01/31 04:01:12;;;;;;;9.07;7.43;;;4.90;71.90;;;;;;5066764;28;20039;-7
2021/01/31 04:03:44;;;;;;;9.57;7.28;;;4.60;71.90;;;;;;5084758;28;20033;-6
2021/01/31 04:06:19;;;;;;;10.52;7.93;;;4.70;72.10;;;;;;5084812;28;20059;-6
2021/01/31 04:08:45;;;;;;;10.07;7.90;;;4.70;72.10;;;;;;5068220;28;20028;-6
2021/01/31 04:11:11;;;;;;;9.52;7.60;;;4.90;72.30;;;;;;5083461;28;20372;-6
2021/01/31 04:13:36;;;;;;;9.75;8.00;;;5.00;71.40;;;;;;5082774;28;20044;-7
2021/01/31 04:16:06;;;;;;;10.40;8.00;;;4.80;71.70;;;;;;5084053;28;20039;-7
2021/01/31 04:18:32;;;;;;;10.15;8.20;;;5.00;71.70;;;;;;5083416;28;20044;-7
2021/01/31 04:20:57;;;;;;;9.65;7.82;;;4.90;71.30;;;;;;5085925;28;20040;-7
2021/01/31 04:23:23;;;;;;;10.23;7.53;;;4.90;71.40;;;;;;5084531;28;20078;-7
2021/01/31 04:25:49;;;;;;;10.65;7.38;;;5.10;71.20;;;;;;5083914;28;20235;-7
2021/01/31 04:28:21;;;;;;;9.45;7.40;;;4.60;71.40;;;;;;5083990;28;20346;-6
2021/01/31 04:30:47;;;;;;;9.98;7.90;;;4.60;71.70;;;;;;5083493;28;20097;-7
2021/01/31 04:33:13;;;;;;;9.45;7.43;;;4.60;71.90;;;;;;5082658;28;20028;-7
2021/01/31 04:35:39;;;;;;;8.98;7.18;;;4.40;72.50;;;;;;5085631;28;20238;-7
2021/01/31 04:38:04;;;;;;;9.85;7.45;;;4.20;72.80;;;;;;5083485;28;20071;-6
2021/01/31 04:40:30;;;;;;;10.18;7.95;;;4.40;72.60;;;;;;5083749;28;20044;-8
2021/01/31 04:42:56;;;;;;;9.10;6.95;;;4.20;72.90;;;;;;5083690;28;20355;-6
2021/01/31 04:45:21;;;;;;;9.63;7.30;;;4.30;72.40;;;;;;5082435;28;20059;-8
2021/01/31 04:48:06;;;;;;;9.55;7.05;;;4.40;72.70;;;;;;5085307;28;20032;-6
2021/01/31 04:50:39;;;;;;;8.75;7.07;;;4.50;71.90;;;;;;5082925;28;20039;-8
2021/01/31 04:53:35;;;;;;;8.90;6.60;;;4.40;72.40;;;;;;5082877;28;20050;-6
2021/01/31 04:56:17;;;;;;;8.80;6.32;;;4.20;72.80;;;;;;5079807;28;20044;-8
2021/01/31 04:58:50;;;;;;;9.13;6.80;;;4.10;73.20;;;;;;5065787;28;20096;-8
2021/01/31 05:01:29;;;;;;;8.45;6.18;;;4.10;72.40;;;;;;5083493;28;20344;-6
2021/01/31 05:03:59;;;;;;;8.20;6.07;;;4.00;73.20;;;;;;5082534;28;20336;-7
2021/01/31 05:06:25;;;;;;;7.90;6.47;;;4.40;72.20;;;;;;5083502;28;20036;-6
2021/01/31 05:08:51;;;;;;;8.18;6.53;;;4.20;72.00;;;;;;5085305;28;20092;-8
2021/01/31 05:11:29;;;;;;;8.25;6.35;;;4.00;72.90;;;;;;5083555;28;20043;-8
2021/01/31 05:13:59;;;;;;;8.60;6.15;;;4.10;72.90;;;;;;5082445;28;20036;-8
2021/01/31 05:16:25;;;;;;;10.37;7.30;;;4.10;72.50;;;;;;5082754;28;20048;-7
2021/01/31 05:18:53;;;;;;;9.65;6.82;;;4.20;72.50;;;;;;5083004;28;20041;-8
2021/01/31 05:21:20;;;;;;;10.73;6.40;;;4.20;72.80;;;;;;5081841;28;20059;-7
2021/01/31 05:24:12;;;;;;;9.90;7.40;;;4.20;72.20;;;;;;5067644;28;20048;-6
2021/01/31 05:26:40;;;;;;;9.73;7.15;;;4.10;72.10;;;;;;5082753;28;20029;-7
2021/01/31 05:29:11;;;;;;;11.63;8.55;;;4.00;72.30;;;;;;5082980;28;20036;-7
2021/01/31 05:31:36;;;;;;;11.07;8.02;;;3.90;72.10;;;;;;5081754;28;20056;-7
2021/01/31 05:34:02;;;;;;;10.52;8.13;;;4.10;72.90;;;;;;5081639;28;20035;-7
2021/01/31 05:36:30;;;;;;;10.32;7.63;;;4.40;72.20;;;;;;5064794;28;20030;-6
2021/01/31 05:38:55;;;;;;;11.10;7.82;;;4.40;71.70;;;;;;5084328;28;20044;-7
2021/01/31 05:41:47;;;;;;;12.32;8.20;;;4.00;71.80;;;;;;5082075;28;20036;-6
2021/01/31 05:44:15;;;;;;;11.00;8.20;;;3.90;72.90;;;;;;5082971;28;20193;-7
2021/01/31 05:46:42;;;;;;;11.27;7.97;;;3.70;72.40;;;;;;5082739;28;20032;-8
2021/01/31 05:49:28;;;;;;;11.50;8.35;;;3.90;72.60;;;;;;5082736;28;20033;-7
2021/01/31 05:51:53;;;;;;;10.80;8.05;;;3.60;73.10;;;;;;5082773;28;20248;-7
2021/01/31 05:54:32;;;;;;;11.65;8.65;;;4.00;72.50;;;;;;5081656;28;20087;-8
2021/01/31 05:56:57;;;;;;;10.02;7.57;;;4.20;71.70;;;;;;5084211;28;20032;-7
2021/01/31 05:59:23;;;;;;;10.93;7.70;;;4.30;71.10;;;;;;5081532;28;20047;-7
2021/01/31 06:01:50;;;;;;;12.63;8.48;;;4.30;71.00;;;;;;5082426;28;20040;-8
2021/01/31 06:04:16;;;;;;;11.57;8.13;;;4.30;71.10;;;;;;5082562;28;20032;-7
2021/01/31 06:06:42;;;;;;;12.23;8.68;;;4.30;71.40;;;;;;5082287;28;20070;-6
2021/01/31 06:09:31;;;;;;;13.50;9.50;;;4.20;71.60;;;;;;5081561;28;20036;-6
2021/01/31 06:12:04;;;;;;;11.75;8.30;;;4.30;71.50;;;;;;5083219;28;20027;-6
2021/01/31 06:14:31;;;;;;;11.80;8.38;;;4.20;71.30;;;;;;5083545;28;20036;-7
2021/01/31 06:17:04;;;;;;;15.27;9.05;;;4.30;70.60;;;;;;5064831;28;20044;-8
2021/01/31 06:19:37;;;;;;;12.43;8.60;;;4.30;70.60;;;;;;5081231;28;20047;-6
2021/01/31 06:22:04;;;;;;;12.95;8.63;;;4.40;70.20;;;;;;5082613;28;20043;-8
2021/01/31 06:24:36;;;;;;;14.25;9.15;;;4.30;70.00;;;;;;5082491;28;20208;-6
2021/01/31 06:27:01;;;;;;;;;;;4.30;69.60;;;;;;5082869;28;20028;-6
2021/01/31 06:29:35;;;;;;;13.15;8.45;;;4.20;69.50;;;;;;5083705;28;19958;-6
2021/01/31 06:32:07;;;;;;;13.48;8.93;;;4.20;69.60;;;;;;5082403;28;20138;-7
2021/01/31 06:34:34;;;;;;;13.55;8.93;;;4.20;69.20;;;;;;5081355;28;20095;-7
2021/01/31 06:37:34;;;;;;;14.00;8.77;;;4.30;69.40;;;;;;5081050;28;20041;-6
2021/01/31 06:40:34;;;;;;;11.93;8.05;;;4.00;69.60;;;;;;5056281;28;20096;-8
2021/01/31 06:43:20;;;;;;;12.98;8.90;;;3.90;71.00;;;;;;5082417;28;20342;-6
2021/01/31 06:45:59;;;;;;;14.40;9.27;;;3.80;70.40;;;;;;5081813;28;20215;-7
2021/01/31 06:48:42;;;;;;;13.27;8.90;;;3.40;71.70;;;;;;5081017;28;20197;-6
2021/01/31 06:51:46;;;;;;;13.30;8.90;;;3.70;71.00;;;;;;5080853;28;20028;-6
2021/01/31 06:54:30;;;;;;;13.13;8.35;;;3.40;71.80;;;;;;5041351;28;20036;-8
2021/01/31 06:57:14;;;;;;;13.55;8.20;;;3.60;71.90;;;;;;5087729;28;20025;-7
2021/01/31 07:00:16;;;;;;;11.52;8.27;;;3.60;71.10;;;;;;5086352;28;20109;-8
2021/01/31 07:03:10;;;;;;;12.68;8.35;;;3.30;71.50;;;;;;5037942;28;20332;-8
2021/01/31 07:05:45;;;;;;;12.40;8.07;;;3.40;71.50;;;;;;5086425;28;20051;-7
2021/01/31 07:08:20;;;;;;;11.93;8.13;;;3.50;71.30;;;;;;5084870;28;20116;-8
2021/01/31 07:11:11;;;;;;;11.50;7.60;;;3.60;70.70;;;;;;5085511;28;20043;-8
2021/01/31 07:13:43;;;;;;;;;;;3.20;71.60;;;;;;5071350;28;20244;-7
2021/01/31 07:16:17;;;;;;;;;;;2.90;71.50;;;;;;5086007;28;20101;-8
2021/01/31 07:18:49;;;;;;;10.98;7.63;;;3.00;72.60;;;;;;5085294;28;19908;-8
2021/01/31 07:21:21;;;;;;;;;;;3.30;72.30;;;;;;5051814;28;20044;-7
2021/01/31 07:23:46;;;;;;;12.80;8.05;;;3.40;70.90;;;;;;5086025;28;19900;-7
2021/01/31 07:26:38;;;;;;;11.60;7.90;;;3.50;71.10;;;;;;5085181;28;20350;-7
2021/01/31 07:29:05;;;;;;;11.82;8.40;;;3.30;71.40;;;;;;5084400;28;20032;-8
2021/01/31 07:31:43;;;;;;;13.18;8.15;;;3.50;71.20;;;;;;5085249;28;20092;-7
2021/01/31 07:34:36;;;;;;;11.70;8.25;;;3.80;69.90;;;;;;5083858;28;20028;-6
2021/01/31 07:37:13;;;;;;;12.32;8.65;;;3.60;70.20;;;;;;5083053;28;20051;-7
2021/01/31 07:40:06;;;;;;;12.02;8.57;;;3.80;70.20;;;;;;5083823;28;20332;-6
2021/01/31 07:42:32;;;;;;;13.93;8.82;;;3.60;69.30;;;;;;5083634;28;20228;-7
2021/01/31 07:45:00;;;;;;;11.95;8.55;;;3.90;70.00;;;;;;5085326;28;20036;-7
2021/01/31 07:47:26;;;;;;;12.43;8.07;;;3.60;69.50;;;;;;5067558;28;20036;-7
2021/01/31 07:49:55;;;;;;;14.43;8.48;;;3.30;70.60;;;;;;5084841;28;20036;-7
2021/01/31 07:52:22;;;;;;;12.07;8.30;;;3.70;70.20;;;;;;5083525;28;20040;-8
2021/01/31 07:54:47;;;;;;;11.40;7.97;;;3.50;69.30;;;;;;5083450;28;20056;-8
2021/01/31 07:57:27;;;;;;;13.90;8.85;;;3.60;69.50;;;;;;5083314;28;20033;-8
2021/01/31 07:59:53;;;;;;;13.90;8.65;;;3.50;69.60;;;;;;5085249;28;20032;-6
2021/01/31 08:02:32;;;;;;;12.85;8.48;;;3.80;68.90;;;;;;5084798;28;20354;-8
2021/01/31 08:04:58;;;;;;;13.75;8.73;;;3.70;69.20;;;;;;5066559;28;20040;-7
2021/01/31 08:08:01;;;;;;;11.98;8.45;;;3.80;69.50;;;;;;5084248;28;20037;-7
2021/01/31 08:10:48;;;;;;;13.05;8.48;;;4.10;68.80;;;;;;5084324;28;20071;-8
2021/01/31 08:13:34;;;;;;;15.40;9.10;;;4.10;68.70;;;;;;5067395;28;20043;-6
2021/01/31 08:16:00;;;;;;;11.60;8.30;;;4.10;68.70;;;;;;5066679;28;20391;-6
2021/01/31 08:18:25;;;;;;;15.70;9.93;;;4.10;68.60;;;;;;5066579;28;20085;-10
2021/01/31 08:20:51;;;;;;;13.77;9.05;;;4.20;68.40;;;;;;5084930;28;20091;-9
2021/01/31 08:23:23;;;;;;;17.20;8.95;;;4.00;68.40;;;;;;5083474;28;20032;-9
2021/01/31 08:25:55;;;;;;;14.13;9.00;;;4.10;68.40;;;;;;5084372;28;20060;-9
2021/01/31 08:28:31;;;;;;;14.45;9.38;;;3.90;68.60;;;;;;5084378;28;20100;-9
2021/01/31 08:31:02;;;;;;;15.77;10.73;;;4.00;69.50;;;;;;5084077;28;20024;-7
2021/01/31 08:33:28;;;;;;;14.57;9.80;;;4.10;69.10;;;;;;5084292;28;20074;-7
2021/01/31 08:35:54;;;;;;;14.93;9.80;;;4.20;68.50;;;;;;5085627;28;20074;-7
2021/01/31 08:38:27;;;;;;;15.52;10.18;;;4.30;68.50;;;;;;5083535;28;20304;-9
2021/01/31 08:41:01;;;;;;;13.80;9.60;;;4.10;68.40;;;;;;5084078;28;20070;-6
2021/01/31 08:43:30;;;;;;;15.80;10.27;;;3.90;69.70;;;;;;5083787;28;20052;-7
2021/01/31 08:46:18;;;;;;;16.05;10.40;;;4.10;68.90;;;;;;5083870;28;20033;-7
2021/01/31 08:48:59;;;;;;;14.38;10.23;;;4.20;68.50;;;;;;5083712;28;20095;-6
2021/01/31 08:51:28;;;;;;;15.35;10.23;;;4.20;68.30;;;;;;5083998;28;20047;-6
2021/01/31 08:54:06;;;;;;;15.27;9.90;;;4.00;68.20;;;;;;5085348;28;20048;-7
2021/01/31 08:56:55;;;;;;;14.88;9.98;;;4.10;68.80;;;;;;5084078;28;20051;-7
2021/01/31 08:59:35;;;;;;;15.40;9.80;;;4.30;68.40;;;;;;5083760;28;20059;-7
2021/01/31 09:02:13;;;;;;;18.52;11.43;;;4.20;68.70;;;;;;5082672;28;20033;-6
2021/01/31 09:04:42;;;;;;;17.10;10.57;;;4.20;68.60;;;;;;5083393;28;20028;-6
2021/01/31 09:07:08;;;;;;;15.73;10.40;;;4.30;68.60;;;;;;5082328;28;20078;-7
2021/01/31 09:09:35;;;;;;;16.48;10.93;;;4.30;68.30;;;;;;5083347;28;20029;-6
2021/01/31 09:12:05;;;;;;;16.92;10.30;;;4.50;68.20;;;;;;5083488;28;20033;-8
2021/01/31 09:14:35;;;;;;;16.10;10.60;;;4.50;67.10;;;;;;5083797;28;20353;-6
2021/01/31 09:17:08;;;;;;;20.45;10.85;;;4.30;68.00;;;;;;5082684;28;20029;-7
2021/01/31 09:19:34;;;;;;;16.38;10.57;;;4.40;68.30;;;;;;5083239;28;20085;-6
2021/01/31 09:22:11;;;;;;;17.60;11.10;;;4.50;67.80;;;;;;5083302;28;20056;-6
2021/01/31 09:24:38;;;;;;;17.40;10.95;;;4.50;68.00;;;;;;5083605;28;20338;-7
2021/01/31 09:27:05;;;;;;;17.65;11.60;;;4.60;67.80;;;;;;5082222;28;20095;-7
2021/01/31 09:29:31;;;;;;;17.05;10.88;;;4.60;68.00;;;;;;5084898;28;20029;-6
2021/01/31 09:32:26;;;;;;;17.02;10.70;;;4.40;67.90;;;;;;5082909;28;20047;-6
2021/01/31 09:34:52;;;;;;;15.82;10.07;;;4.40;67.90;;;;;;5074523;28;20377;-6
2021/01/31 09:37:22;;;;;;;18.45;11.35;;;4.60;67.80;;;;;;5081439;28;20053;-7
2021/01/31 09:39:48;;;;;;;19.60;12.50;;;4.50;67.00;;;;;;5082796;28;20037;-7
2021/01/31 09:42:14;;;;;;;17.23;11.00;;;4.60;67.30;;;;;;5082626;28;20125;-8
2021/01/31 09:44:39;;;;;;;17.23;10.95;;;4.50;67.80;;;;;;5083687;28;20036;-6
2021/01/31 09:47:05;;;;;;;17.88;11.27;;;4.50;67.60;;;;;;5082986;28;20303;-6
2021/01/31 09:49:30;;;;;;;17.85;11.93;;;4.70;67.30;;;;;;5081201;28;20103;-7
2021/01/31 09:52:06;;;;;;;17.83;11.77;;;4.80;67.80;;;;;;5081575;28;20032;-6
2021/01/31 09:54:33;;;;;;;18.95;11.93;;;4.70;67.90;;;;;;5081835;28;20058;-7
2021/01/31 09:57:00;;;;;;;18.45;11.73;;;4.80;67.60;;;;;;5084067;28;20092;-7
2021/01/31 09:59:35;;;;;;;20.23;12.35;;;4.90;67.40;;;;;;5065622;28;20028;-6
2021/01/31 10:02:20;;;;;;;16.52;10.98;;;4.90;68.40;;;;;;5082938;28;20074;-6
2021/01/31 10:04:56;;;;;;;19.55;12.07;;;4.90;67.40;;;;;;5082393;28;20351;-7
2021/01/31 10:07:34;;;;;;;20.13;11.88;;;4.90;67.50;;;;;;5065888;28;20070;-7
2021/01/31 10:10:39;;;;;;;19.33;12.95;;;4.90;67.70;;;;;;5082342;28;20323;-7
2021/01/31 10:13:21;;;;;;;18.38;11.70;;;4.90;67.40;;;;;;5082607;28;20041;-8
2021/01/31 10:15:50;;;;;;;;;;;4.90;67.70;;;;;;5083078;28;20037;-7
2021/01/31 10:18:32;;;;;;;17.67;11.82;;;5.10;68.10;;;;;;5080883;28;20257;-6
2021/01/31 10:21:13;;;;;;;18.88;11.77;;;5.20;67.90;;;;;;5084239;28;20090;-6
2021/01/31 10:23:39;;;;;;;;;;;5.00;67.00;;;;;;5083517;28;20346;-7
2021/01/31 10:26:06;;;;;;;20.05;11.85;;;4.90;67.50;;;;;;5082739;28;19908;-7
2021/01/31 10:28:34;;;;;;;21.92;13.43;;;5.00;67.50;;;;;;5084394;28;20082;-8
2021/01/31 10:30:59;;;;;;;18.73;12.55;;;4.90;66.30;;;;;;5085130;28;20040;-8
2021/01/31 10:33:39;;;;;;;21.45;12.35;;;5.00;67.20;;;;;;5085458;28;20032;-7
2021/01/31 10:36:27;;;;;;;19.02;11.95;;;5.10;67.10;;;;;;5086529;28;20060;-8
2021/01/31 10:38:54;;;;;;;20.67;12.88;;;5.10;66.50;;;;;;5087638;28;20332;-7
2021/01/31 10:41:20;;;;;;;20.13;12.70;;;5.00;66.90;;;;;;5086118;28;20036;-8
2021/01/31 10:43:56;;;;;;;20.60;12.82;;;5.10;67.00;;;;;;5086223;28;20215;-7
2021/01/31 10:46:22;;;;;;;21.38;13.35;;;5.10;66.70;;;;;;5086052;28;20037;-7
2021/01/31 10:48:48;;;;;;;20.00;12.48;;;5.00;66.60;;;;;;5085861;28;20316;-7
2021/01/31 10:51:13;;;;;;;23.60;14.10;;;4.70;68.10;;;;;;5085965;28;20017;-6
2021/01/31 10:53:39;;;;;;;22.40;13.95;;;4.70;68.30;;;;;;5087339;28;20040;-7
2021/01/31 10:56:05;;;;;;;21.45;13.38;;;4.90;67.70;;;;;;5086221;28;20037;-7
2021/01/31 10:58:32;;;;;;;21.42;13.90;;;4.80;67.80;;;;;;5085843;28;20040;-6
2021/01/31 11:00:57;;;;;;;21.48;13.25;;;5.10;68.30;;;;;;5085849;28;20067;-7
2021/01/31 11:03:23;;;;;;;22.27;13.85;;;5.10;67.60;;;;;;5085434;28;20337;-7
2021/01/31 11:05:48;;;;;;;22.02;13.30;;;4.80;67.20;;;;;;5087177;28;20024;-6
2021/01/31 11:08:14;;;;;;;23.85;14.02;;;4.70;68.20;;;;;;5085720;28;20222;-6
2021/01/31 11:10:39;;;;;;;21.85;14.38;;;5.00;68.00;;;;;;5085391;28;20243;-7
2021/01/31 11:13:06;;;;;;;22.67;13.93;;;5.10;67.80;;;;;;5085833;28;20301;-7
2021/01/31 11:15:31;;;;;;;20.98;13.52;;;5.10;67.20;;;;;;5085223;28;20188;-7
2021/01/31 11:17:57;;;;;;;21.30;13.25;;;4.70;67.20;;;;;;5087101;28;20039;-6
2021/01/31 11:20:22;;;;;;;21.20;13.88;;;4.80;68.20;;;;;;5085791;28;20043;-7
2021/01/31 11:22:48;;;;;;;24.35;14.90;;;4.90;67.70;;;;;;5085584;28;20037;-7
2021/01/31 11:25:14;;;;;;;25.23;15.00;;;4.70;67.70;;;;;;5085118;28;20062;-7
2021/01/31 11:27:39;;;;;;;22.48;14.27;;;4.60;68.40;;;;;;5085342;28;20074;-6
2021/01/31 11:30:05;;;;;;;25.52;14.95;;;4.80;68.10;;;;;;5084930;28;20095;-7
2021/01/31 11:32:31;;;;;;;22.27;13.90;;;4.40;69.00;;;;;;5087048;28;20028;-7
2021/01/31 11:34:56;;;;;;;24.92;15.05;;;4.40;69.10;;;;;;5084391;28;20255;-7
2021/01/31 11:37:22;;;;;;;25.25;15.60;;;4.30;69.50;;;;;;5084744;28;20055;-7
2021/01/31 11:39:47;;;;;;;26.33;15.05;;;4.80;69.30;;;;;;5083039;28;20037;-7
2021/01/31 11:42:13;;;;;;;25.30;15.63;;;4.70;68.40;;;;;;5084890;28;20070;-8
2021/01/31 11:44:38;;;;;;;23.65;15.20;;;4.90;68.50;;;;;;5087091;28;20052;-7
2021/01/31 11:47:04;;;;;;;25.83;15.07;;;5.00;68.00;;;;;;5085539;28;20040;-8
2021/01/31 11:49:30;;;;;;;22.25;14.77;;;4.90;68.20;;;;;;5084711;28;20044;-7
2021/01/31 11:51:55;;;;;;;26.52;15.18;;;4.90;67.80;;;;;;5085025;28;20074;-7
2021/01/31 11:54:21;;;;;;;25.23;15.15;;;5.00;68.10;;;;;;5084573;28;20036;-8
2021/01/31 11:56:46;;;;;;;25.60;15.07;;;4.90;68.20;;;;;;5086504;28;20060;-6
2021/01/31 11:59:12;;;;;;;24.45;15.40;;;4.70;68.40;;;;;;5085052;28;20332;-8
2021/01/31 12:01:40;;;;;;;25.38;15.05;;;4.90;68.90;;;;;;5084849;28;20074;-8
2021/01/31 12:04:06;;;;;;;23.67;15.52;;;4.90;68.10;;;;;;5084643;28;20032;-8
2021/01/31 12:06:32;;;;;;;24.38;14.75;;;4.80;68.00;;;;;;5084438;28;20036;-8
2021/01/31 12:08:58;;;;;;;24.77;15.43;;;4.90;68.00;;;;;;5086066;28;20201;-8
2021/01/31 12:11:23;;;;;;;27.52;14.85;;;4.90;67.80;;;;;;5084722;28;20307;-7
2021/01/31 12:13:49;;;;;;;24.42;14.88;;;4.90;68.10;;;;;;5084053;28;20040;-8
2021/01/31 12:16:15;;;;;;;24.67;15.65;;;4.70;68.40;;;;;;5084161;28;20037;-7
2021/01/31 12:18:40;;;;;;;24.45;15.27;;;4.60;68.60;;;;;;5083995;28;20044;-8
2021/01/31 12:21:06;;;;;;;25.05;15.48;;;4.80;68.70;;;;;;5084160;28;20038;-7
2021/01/31 12:23:32;;;;;;;26.33;15.50;;;4.70;69.00;;;;;;5085873;28;20204;-7
2021/01/31 12:25:57;;;;;;;26.85;15.80;;;4.90;68.60;;;;;;5084046;28;20079;-7
2021/01/31 12:28:23;;;;;;;26.83;15.40;;;5.00;68.70;;;;;;5084024;28;20033;-8
2021/01/31 12:30:48;;;;;;;26.27;15.63;;;5.00;68.40;;;;;;5084035;28;20247;-7
2021/01/31 12:33:14;;;;;;;24.45;15.88;;;4.80;69.10;;;;;;5084012;28;20074;-7
2021/01/31 12:35:40;;;;;;;24.52;15.57;;;4.80;69.00;;;;;;5085574;28;20036;-7
2021/01/31 12:38:05;;;;;;;25.42;15.25;;;4.80;69.10;;;;;;5084565;28;20051;-7
2021/01/31 12:40:31;;;;;;;28.70;15.88;;;4.80;69.30;;;;;;5089064;28;20108;-7
2021/01/31 12:42:57;;;;;;;28.52;15.98;;;4.60;69.80;;;;;;5083117;28;20040;-6
2021/01/31 12:45:23;;;;;;;26.90;16.15;;;4.50;69.80;;;;;;5083550;28;20074;-8
2021/01/31 12:47:48;;;;;;;23.92;15.52;;;4.70;69.90;;;;;;5085207;28;20283;-8
2021/01/31 12:50:15;;;;;;;26.90;15.75;;;4.40;70.60;;;;;;5083989;28;20078;-6
2021/01/31 12:52:40;;;;;;;28.67;15.85;;;4.70;70.30;;;;;;5083746;28;20033;-8
2021/01/31 12:55:07;;;;;;;26.90;15.73;;;4.40;70.60;;;;;;5082107;28;20354;-7
2021/01/31 12:57:32;;;;;;;32.53;16.75;;;4.40;70.70;;;;;;5083397;28;20033;-8
2021/01/31 12:59:59;;;;;;;28.80;16.85;;;4.30;70.60;;;;;;5085076;28;20024;-7
2021/01/31 13:02:25;;;;;;;26.05;15.38;;;4.50;70.30;;;;;;5083558;28;20032;-8
2021/01/31 13:04:51;;;;;;;24.95;15.85;;;4.30;70.50;;;;;;5083163;28;20103;-8
2021/01/31 13:07:16;;;;;;;30.50;16.10;;;4.50;70.20;;;;;;5083270;28;20032;-7
2021/01/31 13:09:42;;;;;;;27.90;16.38;;;4.30;71.40;;;;;;5083275;28;20024;-7
2021/01/31 13:12:07;;;;;;;24.63;15.80;;;4.60;70.70;;;;;;5083586;28;20032;-8
2021/01/31 13:14:33;;;;;;;29.25;15.75;;;4.80;69.70;;;;;;5084742;28;20030;-7
2021/01/31 13:16:59;;;;;;;25.48;15.07;;;4.90;69.70;;;;;;5083435;28;20036;-7
2021/01/31 13:19:24;;;;;;;24.25;15.27;;;4.80;68.90;;;;;;5082928;28;20051;-7
2021/01/31 13:21:50;;;;;;;24.00;14.82;;;4.80;69.00;;;;;;5083171;28;20047;-7